This is the latest recevied weather packets stored in our database for station/object WMKC. If no packets are shown the sender has not sent any weather packets the latest 10 day(s).
| Time | Temp. | Humidity | Pressure | Rain* | Wind** | Luminosity | Snow |
|---|---|---|---|---|---|---|---|
| 1777515019 | 30.56° C | 62% | 1011 hPa | - | - | - | - |
| 1777511419 | 30° C | 66% | 1010 hPa | - | - | - | - |
| 1777507838 | 27.78° C | 78% | 1009 hPa | - | - | - | - |
| 1777504219 | 26.67° C | 83% | 1008 hPa | - | - | - | - |
| 1777500619 | 26.67° C | 83% | 1008 hPa | - | - | - | - |
| 1777497019 | 26.67° C | 83% | 1008 hPa | - | - | - | - |
| 1777493435 | 27.78° C | 78% | 1009 hPa | - | - | - | - |
| 1777489818 | 27.78° C | 78% | 1009 hPa | - | - | - | - |
| 1777486218 | 27.78° C | 78% | 1009 hPa | - | - | - | - |
| 1777482618 | 28.89° C | 74% | 1010 hPa | - | - | - | - |
| 1777479023 | 27.78° C | 78% | 1010 hPa | - | - | - | - |
| 1777475430 | 27.78° C | 74% | 1010 hPa | - | - | - | - |
| 1777471818 | 28.89° C | 74% | 1010 hPa | - | - | - | - |
| 1777468218 | 28.89° C | 74% | 1009 hPa | - | - | - | - |
| 1777464623 | 30° C | 70% | 1008 hPa | - | - | - | - |
| 1777461018 | 30.56° C | 70% | 1007 hPa | - | - | - | - |
| 1777457430 | 31.67° C | 62% | 1006 hPa | - | - | - | - |
| 1777453817 | 31.67° C | 62% | 1006 hPa | - | - | - | - |
| 1777450222 | 33.89° C | 56% | 1007 hPa | - | - | - | - |
| 1777446617 | 33.89° C | 46% | 1008 hPa | - | - | - | - |
| 1777443032 | 35° C | 41% | 1008 hPa | - | - | - | - |
| 1777439417 | 35° C | 46% | 1010 hPa | - | - | - | - |
| 1777435822 | 33.89° C | 49% | 1010 hPa | - | - | - | - |
| 1777432217 | 32.78° C | 55% | 1010 hPa | - | - | - | - |
| 1777428628 | 31.67° C | 55% | 1011 hPa | - | - | - | - |
* Rain since midnight (hover to see other rain measurements)
** Current wind speed in m/s (hover to see current wind gust speed)